LFQG 211130Z AUTO 02012KT 350V050 9999 BKN022 04/M01 Q1036

ElémentsDécodage
LFQG Station météo située sur l'aérodrome de NEVERS Fourchambault
211130Z émis le 21 du mois à 11h30 UTC
AUTO Bulletin édité par un automate
02012KT vent du 020°, 12 noeuds
350V050 vent de direction variable entre 350° et 050°
9999 visibilité horizontale supérieure à 10 Km
BKN022 nuages morcelés (5/8 à 7/8) à 2200 pieds
04/M01 température 04°C, point de rosée -01°C
 soit une humidité relative de 70%
Q1036 la pression au niveau de la mer (QNH) est de 1036 hPa